createdAt,value
2023-04-15T00:00:55.545Z,134.92
2023-04-15T00:01:55.600Z,134.04
2023-04-15T00:02:55.771Z,135.07
2023-04-15T00:03:55.593Z,133.89
2023-04-15T00:04:55.554Z,135.35
2023-04-15T00:05:55.518Z,135.26
2023-04-15T00:06:55.497Z,134.30
2023-04-15T00:07:55.503Z,135.01
2023-04-15T00:08:55.515Z,135.37
2023-04-15T00:09:55.482Z,134.36
2023-04-15T00:10:55.466Z,134.73
2023-04-15T00:11:55.459Z,134.23
2023-04-15T00:12:55.489Z,133.53
2023-04-15T00:13:55.529Z,134.15
2023-04-15T00:14:55.574Z,134.51
2023-04-15T00:15:55.584Z,132.80
2023-04-15T00:16:55.687Z,132.74
2023-04-15T00:17:55.743Z,134.01
2023-04-15T00:18:55.722Z,134.48
2023-04-15T00:19:55.747Z,133.15
2023-04-15T00:20:55.733Z,132.72
2023-04-15T00:21:55.789Z,133.02
2023-04-15T00:22:55.808Z,133.37
2023-04-15T00:23:55.853Z,131.87
2023-04-15T00:24:55.884Z,133.64
2023-04-15T00:25:55.926Z,133.12
2023-04-15T00:26:55.937Z,133.13
2023-04-15T00:27:55.993Z,133.56
2023-04-15T00:28:56.001Z,134.45
2023-04-15T00:29:56.065Z,132.63
2023-04-15T00:30:56.153Z,132.66
2023-04-15T00:31:56.116Z,133.41
2023-04-15T00:32:56.228Z,133.75
2023-04-15T00:33:56.197Z,132.09
2023-04-15T00:34:56.224Z,134.39
2023-04-15T00:35:56.276Z,133.54
2023-04-15T00:36:56.316Z,132.78
2023-04-15T00:37:56.342Z,131.64
2023-04-15T00:38:56.361Z,132.84
2023-04-15T00:39:56.396Z,132.70
2023-04-15T00:40:56.430Z,132.46
2023-04-15T00:41:56.496Z,134.31
2023-04-15T00:42:56.524Z,132.56
2023-04-15T00:43:56.517Z,133.43
2023-04-15T00:44:56.648Z,133.41
2023-04-15T00:45:56.645Z,133.19
2023-04-15T00:46:56.634Z,132.04
2023-04-15T00:47:56.698Z,131.92
2023-04-15T00:48:56.721Z,134.43
2023-04-15T00:49:56.758Z,132.01
2023-04-15T00:50:56.786Z,132.77
2023-04-15T00:51:56.794Z,132.59
2023-04-15T00:52:56.833Z,131.10
2023-04-15T00:53:56.845Z,131.97
2023-04-15T00:54:56.909Z,132.26
2023-04-15T00:55:56.924Z,131.94
2023-04-15T00:56:56.985Z,132.97
2023-04-15T00:57:56.969Z,133.72
2023-04-15T00:58:57.027Z,131.75
2023-04-15T00:59:57.093Z,132.99
2023-04-15T01:00:57.113Z,132.72
2023-04-15T01:01:57.222Z,132.33
2023-04-15T01:02:57.345Z,130.85
2023-04-15T01:03:57.366Z,132.65
2023-04-15T01:04:57.243Z,131.60
2023-04-15T01:05:57.243Z,130.84
2023-04-15T01:06:57.298Z,131.48
2023-04-15T01:07:57.365Z,131.49
2023-04-15T01:08:57.354Z,131.45
2023-04-15T01:09:57.402Z,131.34
2023-04-15T01:10:57.410Z,132.59
2023-04-15T01:11:57.481Z,131.45
2023-04-15T01:12:57.507Z,132.50
2023-04-15T01:13:57.509Z,131.23
2023-04-15T01:14:57.565Z,130.96
2023-04-15T01:15:57.677Z,131.22
2023-04-15T01:16:57.631Z,130.48
2023-04-15T01:17:57.741Z,132.75
2023-04-15T01:18:57.814Z,131.72
2023-04-15T01:19:57.736Z,131.60
2023-04-15T01:20:57.784Z,130.14
2023-04-15T01:21:57.820Z,130.52
2023-04-15T01:22:57.819Z,131.28
2023-04-15T01:23:57.864Z,131.19
2023-04-15T01:24:57.912Z,131.75
2023-04-15T01:25:57.936Z,131.59
2023-04-15T01:26:57.996Z,131.87
2023-04-15T01:27:57.994Z,129.73
2023-04-15T01:28:58.156Z,130.94
2023-04-15T01:29:58.091Z,131.25
2023-04-15T01:30:58.089Z,130.56
2023-04-15T01:31:58.311Z,130.07
2023-04-15T01:32:58.239Z,130.18
2023-04-15T01:33:58.211Z,130.52
2023-04-15T01:34:58.250Z,130.26
2023-04-15T01:35:58.291Z,130.71
2023-04-15T01:36:58.314Z,129.90
2023-04-15T01:37:58.362Z,130.22
2023-04-15T01:38:58.520Z,131.17
2023-04-15T01:39:58.417Z,130.70
2023-04-15T01:40:58.442Z,130.23
2023-04-15T01:41:58.475Z,129.45
2023-04-15T01:42:58.512Z,128.63
2023-04-15T01:43:58.552Z,130.29
2023-04-15T01:44:58.640Z,131.23
2023-04-15T01:45:58.642Z,129.20
2023-04-15T01:46:58.758Z,130.24
2023-04-15T01:47:58.790Z,130.63
2023-04-15T01:48:58.891Z,129.95
2023-04-15T01:49:58.766Z,129.76
2023-04-15T01:50:58.801Z,129.75
2023-04-15T01:51:58.828Z,131.07
2023-04-15T01:52:58.864Z,131.54
2023-04-15T01:53:58.936Z,130.81
2023-04-15T01:54:58.940Z,129.95
2023-04-15T01:55:58.952Z,130.03
2023-04-15T01:56:59.065Z,130.55
2023-04-15T01:57:59.057Z,130.76
2023-04-15T01:58:59.253Z,131.62
2023-04-15T01:59:59.145Z,129.18
2023-04-15T02:00:59.151Z,129.82
2023-04-15T02:01:59.220Z,130.88
2023-04-15T02:02:59.274Z,130.79
2023-04-15T02:03:59.296Z,129.47
2023-04-15T02:04:59.298Z,131.11
2023-04-15T02:05:59.302Z,129.38
2023-04-15T02:06:59.341Z,130.47
2023-04-15T02:07:59.349Z,129.12
2023-04-15T02:08:59.592Z,131.30
2023-04-15T02:09:59.469Z,129.24
2023-04-15T02:10:59.505Z,128.79
2023-04-15T02:11:59.551Z,130.08
2023-04-15T02:12:59.528Z,129.47
2023-04-15T02:13:59.556Z,130.10
2023-04-15T02:14:59.624Z,128.91
2023-04-15T02:15:59.641Z,128.81
2023-04-15T02:16:59.729Z,128.33
2023-04-15T02:17:59.842Z,130.34
2023-04-15T02:19:00.015Z,129.90
2023-04-15T02:19:59.772Z,130.34
2023-04-15T02:20:59.798Z,129.96
2023-04-15T02:21:59.854Z,129.98
2023-04-15T02:22:59.874Z,129.72
2023-04-15T02:23:59.924Z,128.78
2023-04-15T02:24:59.953Z,128.70
2023-04-15T02:25:59.978Z,129.18
2023-04-15T02:27:00.013Z,128.55
2023-04-15T02:28:00.050Z,128.96
2023-04-15T02:29:00.363Z,129.02
2023-04-15T02:30:00.135Z,128.75
2023-04-15T02:31:00.154Z,130.19
2023-04-15T02:32:00.281Z,128.80
2023-04-15T02:33:00.244Z,128.46
2023-04-15T02:34:00.242Z,129.09
2023-04-15T02:35:00.314Z,128.03
2023-04-15T02:36:00.318Z,127.36
2023-04-15T02:37:00.338Z,128.06
2023-04-15T02:38:00.385Z,129.70
2023-04-15T02:39:00.797Z,127.96
2023-04-15T02:40:00.449Z,128.83
2023-04-15T02:41:00.495Z,129.74
2023-04-15T02:42:00.509Z,129.33
2023-04-15T02:43:00.550Z,128.99
2023-04-15T02:44:00.577Z,128.36
2023-04-15T02:45:00.633Z,129.45
2023-04-15T02:46:00.678Z,128.86
2023-04-15T02:47:00.693Z,129.74
2023-04-15T02:48:00.727Z,128.48
2023-04-15T02:49:00.892Z,128.54
2023-04-15T02:50:00.803Z,128.13
2023-04-15T02:51:00.809Z,128.66
2023-04-15T02:52:00.849Z,127.94
2023-04-15T02:53:00.874Z,128.78
2023-04-15T02:54:00.889Z,125.89
2023-04-15T02:55:00.962Z,127.32
2023-04-15T02:56:01.000Z,127.02
2023-04-15T02:57:01.067Z,129.17
2023-04-15T02:58:01.023Z,127.61
2023-04-15T02:59:01.391Z,127.45
2023-04-15T03:00:01.157Z,127.73
2023-04-15T03:01:01.171Z,128.63
2023-04-15T03:02:01.236Z,128.22
2023-04-15T03:03:01.321Z,127.89
2023-04-15T03:04:01.314Z,126.36
2023-04-15T03:05:01.294Z,126.06
2023-04-15T03:06:01.344Z,126.59
2023-04-15T03:07:01.374Z,126.01
2023-04-15T03:08:01.499Z,125.97
2023-04-15T03:09:01.722Z,126.27
2023-04-15T03:10:01.451Z,125.64
2023-04-15T03:11:01.518Z,125.63
2023-04-15T03:12:01.543Z,126.87
2023-04-15T03:13:01.560Z,127.51
2023-04-15T03:14:01.598Z,124.90
2023-04-15T03:15:01.662Z,126.56
2023-04-15T03:16:01.665Z,127.13
2023-04-15T03:17:01.689Z,125.21
2023-04-15T03:18:01.818Z,125.15
2023-04-15T03:19:01.944Z,126.17
2023-04-15T03:20:01.816Z,126.04
2023-04-15T03:21:01.856Z,125.29
2023-04-15T03:22:01.879Z,126.60
2023-04-15T03:23:01.954Z,125.95
2023-04-15T03:24:01.948Z,123.42
2023-04-15T03:25:01.946Z,124.27
2023-04-15T03:26:02.051Z,125.09
2023-04-15T03:27:02.061Z,125.41
2023-04-15T03:28:02.063Z,126.53
2023-04-15T03:29:02.278Z,125.20
2023-04-15T03:30:02.145Z,125.59
2023-04-15T03:31:02.199Z,124.25
2023-04-15T03:32:02.181Z,123.56
2023-04-15T03:33:02.280Z,125.09
2023-04-15T03:34:02.258Z,123.24
2023-04-15T03:35:02.319Z,124.17
2023-04-15T03:36:02.329Z,124.85
2023-04-15T03:37:02.379Z,124.68
2023-04-15T03:38:02.410Z,125.20
2023-04-15T03:39:02.647Z,123.68
2023-04-15T03:40:02.469Z,123.95
2023-04-15T03:41:02.477Z,124.12
2023-04-15T03:42:02.508Z,123.99
2023-04-15T03:43:02.551Z,123.50
2023-04-15T03:44:02.634Z,123.11
2023-04-15T03:45:02.652Z,123.81
2023-04-15T03:46:02.681Z,124.95
2023-04-15T03:47:02.687Z,123.65
2023-04-15T03:48:16.089Z,121.80
2023-04-15T03:49:03.934Z,121.91
2023-04-15T03:50:02.715Z,122.02
2023-04-15T03:51:02.683Z,122.82
2023-04-15T03:52:02.693Z,123.06
2023-04-15T03:53:02.693Z,122.78
2023-04-15T03:54:02.670Z,124.01
2023-04-15T03:55:02.699Z,123.31
2023-04-15T03:56:02.659Z,122.89
2023-04-15T03:57:02.649Z,123.84
2023-04-15T03:58:02.643Z,122.86
2023-04-15T03:59:03.093Z,123.98
2023-04-15T04:00:02.628Z,123.07
2023-04-15T04:01:02.654Z,122.69
2023-04-15T04:02:02.738Z,122.86
2023-04-15T04:03:02.791Z,123.15
2023-04-15T04:04:02.763Z,121.75
2023-04-15T04:05:02.750Z,121.32
2023-04-15T04:06:02.748Z,122.09
2023-04-15T04:07:02.786Z,120.12
2023-04-15T04:08:02.819Z,122.28
2023-04-15T04:09:03.100Z,121.68
2023-04-15T04:10:02.875Z,121.54
2023-04-15T04:11:02.909Z,119.76
2023-04-15T04:12:02.964Z,120.71
2023-04-15T04:13:02.974Z,120.70
2023-04-15T04:14:03.037Z,120.72
2023-04-15T04:15:03.091Z,122.60
2023-04-15T04:16:03.157Z,118.39
2023-04-15T04:17:03.150Z,119.27
2023-04-15T04:18:03.200Z,121.88
2023-04-15T04:19:03.381Z,120.04
2023-04-15T04:20:03.220Z,119.40
2023-04-15T04:21:03.252Z,119.94
2023-04-15T04:22:03.281Z,119.28
2023-04-15T04:23:03.310Z,119.20
2023-04-15T04:24:03.302Z,118.99
2023-04-15T04:25:03.370Z,118.24
2023-04-15T04:26:03.385Z,119.86
2023-04-15T04:27:03.420Z,118.32
2023-04-15T04:28:03.485Z,119.66
2023-04-15T04:29:03.827Z,118.79
2023-04-15T04:30:03.531Z,119.21
2023-04-15T04:31:03.574Z,119.75
2023-04-15T04:32:03.635Z,118.37
2023-04-15T04:33:03.670Z,118.66
2023-04-15T04:34:03.631Z,117.57
2023-04-15T04:35:03.729Z,117.58
2023-04-15T04:36:03.729Z,119.05
2023-04-15T04:37:03.734Z,118.99
2023-04-15T04:38:03.806Z,119.40
2023-04-15T04:39:03.858Z,118.08
2023-04-15T04:40:03.858Z,118.15
2023-04-15T04:41:03.866Z,118.81
2023-04-15T04:42:03.896Z,116.23
2023-04-15T04:43:03.942Z,118.79
2023-04-15T04:44:03.980Z,117.72
2023-04-15T04:45:04.016Z,120.19
2023-04-15T04:46:04.095Z,117.99
2023-04-15T04:47:04.095Z,118.67
2023-04-15T04:48:04.133Z,116.67
2023-04-15T04:49:04.388Z,117.68
2023-04-15T04:50:04.196Z,116.27
2023-04-15T04:51:04.187Z,116.72
2023-04-15T04:52:04.240Z,116.62
2023-04-15T04:53:04.271Z,117.56
2023-04-15T04:54:04.324Z,115.82
2023-04-15T04:55:04.358Z,115.61
2023-04-15T04:56:04.385Z,116.68
2023-04-15T04:57:04.444Z,116.26
2023-04-15T04:58:04.455Z,115.44
2023-04-15T04:59:04.511Z,114.40
2023-04-15T05:00:04.566Z,115.50
2023-04-15T05:01:04.596Z,115.05
2023-04-15T05:02:04.660Z,115.27
2023-04-15T05:03:04.705Z,114.98
2023-04-15T05:04:04.885Z,116.34
2023-04-15T05:05:04.732Z,114.99
2023-04-15T05:06:04.715Z,113.40
2023-04-15T05:07:04.742Z,116.03
2023-04-15T05:08:04.794Z,115.37
2023-04-15T05:09:04.847Z,114.19
2023-04-15T05:10:04.898Z,113.92
2023-04-15T05:11:04.928Z,114.60
2023-04-15T05:12:04.976Z,114.58
2023-04-15T05:13:04.964Z,114.74
2023-04-15T05:14:05.018Z,113.85
2023-04-15T05:15:05.065Z,113.05
2023-04-15T05:16:05.088Z,114.71
2023-04-15T05:17:05.117Z,112.24
2023-04-15T05:18:05.201Z,112.06
2023-04-15T05:19:05.214Z,112.44
2023-04-15T05:20:05.227Z,114.51
2023-04-15T05:21:05.283Z,113.56
2023-04-15T05:22:05.297Z,113.44
2023-04-15T05:23:05.336Z,113.84
2023-04-15T05:24:05.364Z,113.74
2023-04-15T05:25:05.392Z,111.42
2023-04-15T05:26:05.428Z,112.76
2023-04-15T05:27:05.460Z,111.48
2023-04-15T05:28:05.503Z,112.84
2023-04-15T05:29:05.520Z,112.46
2023-04-15T05:30:05.583Z,112.12
2023-04-15T05:31:05.648Z,112.24
2023-04-15T05:32:05.642Z,112.59
2023-04-15T05:33:05.651Z,113.69
2023-04-15T05:34:05.733Z,112.46
2023-04-15T05:35:05.770Z,112.26
2023-04-15T05:36:05.772Z,113.23
2023-04-15T05:37:05.812Z,112.69
2023-04-15T05:38:05.877Z,112.30
2023-04-15T05:39:05.885Z,110.98
2023-04-15T05:40:05.935Z,111.98
2023-04-15T05:41:05.967Z,114.26
2023-04-15T05:42:06.119Z,111.31
2023-04-15T05:43:06.025Z,111.04
2023-04-15T05:44:06.063Z,112.03
2023-04-15T05:45:06.100Z,111.79
2023-04-15T05:46:06.296Z,111.19
2023-04-15T05:47:06.198Z,112.80
2023-04-15T05:48:06.216Z,110.89
2023-04-15T05:49:06.255Z,111.96
2023-04-15T05:50:06.302Z,109.24
2023-04-15T05:51:06.358Z,110.47
2023-04-15T05:52:06.395Z,110.11
2023-04-15T05:53:06.386Z,110.94
2023-04-15T05:54:06.403Z,110.49
2023-04-15T05:55:06.500Z,108.97
2023-04-15T05:56:06.495Z,109.64
2023-04-15T05:57:06.556Z,110.43
2023-04-15T05:58:06.549Z,109.70
2023-04-15T05:59:06.574Z,109.32
2023-04-15T06:00:06.640Z,109.34
2023-04-15T06:01:06.662Z,109.27
2023-04-15T06:02:06.720Z,108.97
2023-04-15T06:03:06.845Z,108.84
2023-04-15T06:04:06.838Z,109.94
2023-04-15T06:05:06.867Z,108.51
2023-04-15T06:06:06.826Z,108.71
2023-04-15T06:07:06.869Z,108.08
2023-04-15T06:08:06.882Z,108.81
2023-04-15T06:09:06.942Z,107.11
2023-04-15T06:10:06.980Z,108.41
2023-04-15T06:11:06.996Z,108.66
2023-04-15T06:12:07.046Z,107.62
2023-04-15T06:13:07.073Z,107.30
2023-04-15T06:14:07.080Z,109.72
2023-04-15T06:15:07.114Z,106.83
2023-04-15T06:16:07.189Z,107.19
2023-04-15T06:17:07.216Z,107.04
2023-04-15T06:18:07.226Z,104.48
2023-04-15T06:19:07.244Z,107.76
2023-04-15T06:20:07.299Z,107.80
2023-04-15T06:21:07.309Z,109.20
2023-04-15T06:22:07.339Z,107.70
2023-04-15T06:23:07.396Z,107.51
2023-04-15T06:24:07.402Z,105.77
2023-04-15T06:25:07.456Z,105.99
2023-04-15T06:26:07.487Z,106.57
2023-04-15T06:27:07.506Z,106.41
2023-04-15T06:28:07.522Z,102.81
2023-04-15T06:29:07.576Z,105.11
2023-04-15T06:30:07.633Z,104.66
2023-04-15T06:31:07.703Z,104.78
2023-04-15T06:32:07.660Z,106.36
2023-04-15T06:33:07.719Z,107.15
2023-04-15T06:34:07.774Z,105.57
2023-04-15T06:35:07.800Z,103.95
2023-04-15T06:36:07.827Z,103.94
2023-04-15T06:37:07.827Z,104.31
2023-04-15T06:38:07.859Z,105.05
2023-04-15T06:39:07.925Z,105.19
2023-04-15T06:40:07.957Z,102.20
2023-04-15T06:41:07.981Z,104.68
2023-04-15T06:42:08.060Z,104.20
2023-04-15T06:43:08.049Z,103.42
2023-04-15T06:44:08.112Z,104.07
2023-04-15T06:45:08.139Z,105.12
2023-04-15T06:46:08.229Z,102.64
2023-04-15T06:47:08.220Z,104.18
2023-04-15T06:48:08.229Z,106.41
2023-04-15T06:49:08.290Z,105.69
2023-04-15T06:50:08.313Z,105.07
2023-04-15T06:51:08.354Z,104.99
2023-04-15T06:52:08.390Z,103.91
2023-04-15T06:53:08.437Z,103.52
2023-04-15T06:54:08.461Z,108.85
2023-04-15T06:55:08.506Z,108.64
2023-04-15T06:56:08.547Z,106.00
2023-04-15T06:57:08.598Z,105.75
2023-04-15T06:58:08.599Z,107.96
2023-04-15T06:59:08.627Z,103.98
2023-04-15T07:00:08.723Z,104.70
2023-04-15T07:01:08.743Z,103.45
2023-04-15T07:02:08.802Z,102.60
2023-04-15T07:03:08.809Z,104.99
2023-04-15T07:04:08.890Z,106.14
2023-04-15T07:05:08.885Z,106.94
2023-04-15T07:06:08.896Z,106.28
2023-04-15T07:07:08.921Z,108.87
2023-04-15T07:08:08.946Z,107.41
2023-04-15T07:09:08.975Z,110.96
2023-04-15T07:10:09.019Z,111.64
2023-04-15T07:11:09.078Z,110.40
2023-04-15T07:12:09.082Z,109.79
2023-04-15T07:13:09.140Z,111.51
2023-04-15T07:14:09.167Z,110.27
2023-04-15T07:15:09.205Z,109.55
2023-04-15T07:16:09.204Z,107.97
2023-04-15T07:17:09.327Z,108.74
2023-04-15T07:18:09.285Z,106.07
2023-04-15T07:19:09.313Z,109.44
2023-04-15T07:20:09.320Z,108.25
2023-04-15T07:21:09.374Z,106.96
2023-04-15T07:22:09.379Z,106.89
2023-04-15T07:23:09.429Z,107.77
2023-04-15T07:24:09.425Z,110.46
2023-04-15T07:25:09.469Z,110.23
2023-04-15T07:26:09.463Z,110.80
2023-04-15T07:27:09.507Z,112.65
2023-04-15T07:28:09.506Z,111.24
2023-04-15T07:29:09.518Z,114.34
2023-04-15T07:30:09.554Z,112.10
2023-04-15T07:31:09.636Z,111.79
2023-04-15T07:32:09.629Z,113.19
2023-04-15T07:33:09.634Z,113.89
2023-04-15T07:34:09.697Z,114.61
2023-04-15T07:35:09.727Z,113.40
2023-04-15T07:36:09.738Z,111.99
2023-04-15T07:37:09.750Z,113.08
2023-04-15T07:38:09.778Z,112.46
2023-04-15T07:39:09.761Z,112.59
2023-04-15T07:40:09.800Z,111.74
2023-04-15T07:41:09.850Z,112.31
2023-04-15T07:42:09.870Z,111.14
2023-04-15T07:43:09.860Z,113.61
2023-04-15T07:44:09.890Z,114.14
2023-04-15T07:45:09.907Z,111.91
2023-04-15T07:46:09.945Z,112.44
2023-04-15T07:47:09.963Z,115.14
2023-04-15T07:48:09.996Z,112.86
2023-04-15T07:49:09.969Z,114.93
2023-04-15T07:50:09.987Z,115.42
2023-04-15T07:51:10.021Z,115.19
2023-04-15T07:52:10.012Z,115.62
2023-04-15T07:53:10.047Z,112.21
2023-04-15T07:54:10.080Z,112.74
2023-04-15T07:55:10.081Z,112.45
2023-04-15T07:56:10.099Z,112.98
2023-04-15T07:57:10.113Z,111.32
2023-04-15T07:58:10.143Z,112.72
2023-04-15T07:59:10.163Z,113.22
2023-04-15T08:00:10.158Z,113.51
2023-04-15T08:01:10.184Z,113.25
2023-04-15T08:02:10.244Z,115.62
2023-04-15T08:03:10.300Z,112.87
2023-04-15T08:04:10.302Z,112.09
2023-04-15T08:05:10.298Z,113.93
2023-04-15T08:06:10.238Z,111.72
2023-04-15T08:07:10.268Z,115.22
2023-04-15T08:08:10.285Z,112.99
2023-04-15T08:09:10.277Z,113.95
2023-04-15T08:10:10.351Z,114.75
2023-04-15T08:11:10.295Z,114.41
2023-04-15T08:12:10.286Z,114.48
2023-04-15T08:13:10.335Z,113.64
2023-04-15T08:14:10.352Z,114.63
2023-04-15T08:15:10.359Z,114.92
2023-04-15T08:16:10.394Z,112.69
2023-04-15T08:17:10.376Z,114.27
2023-04-15T08:18:10.399Z,114.06
2023-04-15T08:19:10.382Z,114.14
2023-04-15T08:20:10.411Z,113.39
2023-04-15T08:21:10.402Z,113.46
2023-04-15T08:22:18.087Z,113.59
2023-04-15T08:23:11.445Z,113.77
2023-04-15T08:24:10.394Z,113.19
2023-04-15T08:25:10.410Z,112.46
2023-04-15T08:26:10.359Z,112.02
2023-04-15T08:27:10.375Z,112.05
2023-04-15T08:28:10.360Z,113.12
2023-04-15T08:29:10.400Z,111.11
2023-04-15T08:30:10.363Z,111.05
2023-04-15T08:31:10.337Z,111.12
2023-04-15T08:32:10.325Z,112.82
2023-04-15T08:33:10.347Z,110.93
2023-04-15T08:34:10.326Z,109.60
2023-04-15T08:35:10.349Z,109.50
2023-04-15T08:36:10.286Z,110.28
2023-04-15T08:37:11.554Z,110.09
2023-04-15T08:38:10.305Z,110.22
2023-04-15T08:39:10.277Z,109.31
2023-04-15T08:40:10.295Z,111.77
2023-04-15T08:41:10.300Z,108.21
2023-04-15T08:42:10.258Z,109.79
2023-04-15T08:43:10.270Z,110.31
2023-04-15T08:44:10.253Z,111.23
2023-04-15T08:45:10.273Z,111.17
2023-04-15T08:46:10.233Z,111.35
2023-04-15T08:47:10.542Z,110.98
2023-04-15T08:48:10.248Z,111.48
2023-04-15T08:49:10.201Z,110.37
2023-04-15T08:50:10.259Z,111.32
2023-04-15T08:51:10.218Z,111.05
2023-04-15T08:52:10.231Z,112.14
2023-04-15T08:53:10.231Z,111.29
2023-04-15T08:54:10.213Z,111.73
2023-04-15T08:55:10.219Z,112.28
2023-04-15T08:56:10.241Z,111.23
2023-04-15T08:57:10.212Z,111.02
2023-04-15T08:58:10.220Z,110.37
2023-04-15T08:59:10.188Z,110.71
2023-04-15T09:00:10.217Z,108.88
2023-04-15T09:01:10.236Z,110.91
2023-04-15T09:02:10.222Z,109.86
2023-04-15T09:03:10.282Z,109.31
2023-04-15T09:04:10.274Z,110.81
2023-04-15T09:05:10.166Z,110.17
2023-04-15T09:06:10.198Z,109.07
2023-04-15T09:07:10.177Z,109.81
2023-04-15T09:08:10.243Z,109.81
2023-04-15T09:09:10.187Z,109.00
2023-04-15T09:10:10.175Z,110.51
2023-04-15T09:11:10.159Z,109.66
2023-04-15T09:12:10.187Z,109.37
2023-04-15T09:13:10.154Z,107.96
2023-04-15T09:14:10.140Z,109.29
2023-04-15T09:15:10.176Z,109.46
2023-04-15T09:16:10.191Z,107.45
2023-04-15T09:17:10.122Z,109.50
2023-04-15T09:18:10.135Z,109.29
2023-04-15T09:19:10.141Z,109.87
2023-04-15T09:20:10.162Z,110.40
2023-04-15T09:21:10.116Z,108.69
2023-04-15T09:22:10.159Z,108.51
2023-04-15T09:23:10.141Z,109.40
2023-04-15T09:24:10.181Z,110.27
2023-04-15T09:25:10.198Z,109.70
2023-04-15T09:26:10.130Z,110.11
2023-04-15T09:27:10.140Z,109.47
2023-04-15T09:28:10.167Z,109.10
2023-04-15T09:29:10.176Z,108.13
2023-04-15T09:30:10.192Z,109.32
2023-04-15T09:31:10.239Z,109.97
2023-04-15T09:32:10.225Z,110.73
2023-04-15T09:33:10.236Z,111.17
2023-04-15T09:34:10.283Z,109.86
2023-04-15T09:35:10.328Z,110.42
2023-04-15T09:36:10.373Z,109.03
2023-04-15T09:37:10.558Z,109.65
2023-04-15T09:38:10.428Z,110.24
2023-04-15T09:39:10.450Z,109.89
2023-04-15T09:40:10.455Z,109.44
2023-04-15T09:41:10.496Z,108.23
2023-04-15T09:42:10.537Z,108.91
2023-04-15T09:43:10.588Z,108.23
2023-04-15T09:44:10.613Z,109.15
2023-04-15T09:45:10.656Z,108.45
2023-04-15T09:46:10.701Z,108.76
2023-04-15T09:47:10.698Z,107.90
2023-04-15T09:48:10.799Z,107.12
2023-04-15T09:49:10.808Z,107.81
2023-04-15T09:50:10.888Z,107.26
2023-04-15T09:51:10.908Z,109.20
2023-04-15T09:52:10.942Z,109.31
2023-04-15T09:53:11.040Z,109.86
2023-04-15T09:54:11.069Z,108.69
2023-04-15T09:55:11.153Z,109.00
2023-04-15T09:56:11.156Z,108.09
2023-04-15T09:57:11.181Z,107.66
2023-04-15T09:58:11.219Z,107.74
2023-04-15T09:59:11.296Z,105.52
2023-04-15T10:00:11.399Z,106.96
2023-04-15T10:01:11.428Z,106.22
2023-04-15T10:02:11.536Z,106.26
2023-04-15T10:03:11.721Z,106.24
2023-04-15T10:04:11.639Z,106.37
2023-04-15T10:05:11.648Z,106.97
2023-04-15T10:06:11.685Z,106.08
2023-04-15T10:07:11.755Z,108.01
2023-04-15T10:08:11.794Z,107.95
2023-04-15T10:09:11.860Z,105.10
2023-04-15T10:10:11.947Z,104.68
2023-04-15T10:11:11.999Z,105.60
2023-04-15T10:12:12.066Z,105.79
2023-04-15T10:13:12.116Z,106.42
2023-04-15T10:14:12.193Z,104.71
2023-04-15T10:15:12.268Z,105.42
2023-04-15T10:16:12.353Z,106.58
2023-04-15T10:17:12.352Z,104.86
2023-04-15T10:18:12.437Z,105.74
2023-04-15T10:19:12.482Z,106.89
2023-04-15T10:20:12.566Z,104.97
2023-04-15T10:21:12.640Z,103.89
2023-04-15T10:22:12.699Z,103.32
2023-04-15T10:23:13.523Z,104.70
2023-04-15T10:24:12.799Z,102.85
2023-04-15T10:25:12.876Z,104.79
2023-04-15T10:26:12.899Z,103.69
2023-04-15T10:27:13.004Z,103.07
2023-04-15T10:28:13.041Z,103.61
2023-04-15T10:29:13.141Z,105.31
2023-04-15T10:30:13.212Z,105.48
2023-04-15T10:31:13.278Z,105.05
2023-04-15T10:32:13.276Z,103.17
2023-04-15T10:33:13.367Z,105.55
2023-04-15T10:34:13.399Z,104.21
2023-04-15T10:35:13.494Z,102.43
2023-04-15T10:36:13.549Z,104.66
2023-04-15T10:37:13.631Z,103.05
2023-04-15T10:38:13.680Z,103.17
2023-04-15T10:39:13.717Z,102.79
2023-04-15T10:40:13.909Z,104.42
2023-04-15T10:41:13.836Z,99.75
2023-04-15T10:42:13.977Z,101.45
2023-04-15T10:43:13.954Z,102.19
2023-04-15T10:44:14.005Z,104.95
2023-04-15T10:45:14.082Z,101.63
2023-04-15T10:46:14.147Z,101.78
2023-04-15T10:47:14.181Z,99.90
2023-04-15T10:48:14.248Z,100.89
2023-04-15T10:49:14.328Z,102.98
2023-04-15T10:50:14.362Z,101.56
2023-04-15T10:51:14.396Z,101.83
2023-04-15T10:52:14.466Z,100.71
2023-04-15T10:53:14.515Z,101.81
2023-04-15T10:54:15.562Z,100.74
2023-04-15T10:55:14.690Z,100.60
2023-04-15T10:56:14.686Z,102.53
2023-04-15T10:57:14.747Z,100.60
2023-04-15T10:58:14.810Z,100.43
2023-04-15T10:59:14.876Z,101.39
2023-04-15T11:00:14.938Z,103.36
2023-04-15T11:01:14.934Z,102.44
2023-04-15T11:02:15.078Z,103.25
2023-04-15T11:03:15.182Z,100.06
2023-04-15T11:04:15.163Z,102.07
2023-04-15T11:05:15.186Z,102.61
2023-04-15T11:06:15.226Z,99.80
2023-04-15T11:07:15.295Z,104.09
2023-04-15T11:08:15.333Z,100.06
2023-04-15T11:09:15.369Z,99.89
2023-04-15T11:10:15.446Z,99.88
2023-04-15T11:11:15.460Z,102.09
2023-04-15T11:12:15.525Z,100.46
2023-04-15T11:13:15.580Z,100.02
2023-04-15T11:14:15.607Z,102.20
2023-04-15T11:15:15.706Z,99.79
2023-04-15T11:16:15.789Z,101.75
2023-04-15T11:17:15.813Z,101.29
2023-04-15T11:18:15.852Z,99.16
2023-04-15T11:19:15.936Z,101.42
2023-04-15T11:20:16.003Z,98.58
2023-04-15T11:21:16.007Z,99.68
2023-04-15T11:22:16.058Z,100.15
2023-04-15T11:23:16.179Z,98.25
2023-04-15T11:24:16.195Z,98.67
2023-04-15T11:25:16.250Z,98.04
2023-04-15T11:26:16.245Z,97.58
2023-04-15T11:27:16.312Z,100.19
2023-04-15T11:28:16.394Z,99.59
2023-04-15T11:29:16.401Z,96.51
2023-04-15T11:30:16.469Z,97.39
2023-04-15T11:31:16.582Z,96.47
2023-04-15T11:32:16.579Z,97.89
2023-04-15T11:33:16.586Z,96.78
2023-04-15T11:34:16.644Z,98.19
2023-04-15T11:35:16.710Z,98.03
2023-04-15T11:36:16.778Z,99.88
2023-04-15T11:37:16.812Z,98.95
2023-04-15T11:38:16.839Z,98.44
2023-04-15T11:39:16.887Z,98.85
2023-04-15T11:40:17.383Z,100.26
2023-04-15T11:41:16.967Z,99.56
2023-04-15T11:42:17.056Z,101.61
2023-04-15T11:43:17.105Z,98.25
2023-04-15T11:44:17.106Z,100.96
2023-04-15T11:45:18.068Z,100.65
2023-04-15T11:46:17.350Z,99.29
2023-04-15T11:47:17.247Z,98.71
2023-04-15T11:48:17.262Z,100.81
2023-04-15T11:49:17.329Z,100.59
2023-04-15T11:50:17.385Z,99.39
2023-04-15T11:51:17.447Z,99.81
2023-04-15T11:52:17.436Z,97.65
2023-04-15T11:53:17.521Z,99.64
2023-04-15T11:54:17.549Z,100.10
2023-04-15T11:55:17.608Z,100.98
2023-04-15T11:56:17.637Z,100.05
2023-04-15T11:57:17.711Z,99.18
2023-04-15T11:58:17.759Z,99.69
2023-04-15T11:59:17.824Z,100.13
2023-04-15T12:00:17.832Z,97.80
2023-04-15T12:01:17.905Z,100.52
2023-04-15T12:02:18.181Z,100.22
2023-04-15T12:03:18.112Z,101.48
2023-04-15T12:04:19.000Z,100.58
2023-04-15T12:05:18.142Z,102.06
2023-04-15T12:06:18.167Z,98.77
2023-04-15T12:07:18.206Z,98.92
2023-04-15T12:08:18.239Z,99.82
2023-04-15T12:09:18.274Z,100.00
2023-04-15T12:10:18.310Z,98.67
2023-04-15T12:11:18.378Z,97.57
2023-04-15T12:12:18.389Z,97.17
2023-04-15T12:13:18.457Z,95.90
2023-04-15T12:14:18.522Z,100.72
2023-04-15T12:15:18.576Z,98.35
2023-04-15T12:16:18.697Z,95.84
2023-04-15T12:17:18.654Z,98.74
2023-04-15T12:18:18.741Z,98.31
2023-04-15T12:19:18.739Z,99.89
2023-04-15T12:20:18.815Z,100.49
2023-04-15T12:21:18.884Z,99.80
2023-04-15T12:22:18.870Z,99.56
2023-04-15T12:23:18.958Z,99.44
2023-04-15T12:24:18.972Z,100.01
2023-04-15T12:25:19.036Z,99.28
2023-04-15T12:26:19.094Z,98.69
2023-04-15T12:27:19.123Z,96.50
2023-04-15T12:28:19.173Z,97.62
2023-04-15T12:29:19.232Z,96.51
2023-04-15T12:30:19.235Z,97.08
2023-04-15T12:31:19.355Z,94.91